sensor_id;sensor_type;location;lat;lon;timestamp;temperature;humidity
7248;DHT22;3665;51.034;13.642;2023-07-16T00:17:42;20.50;1.00
7248;DHT22;3665;51.034;13.642;2023-07-16T00:36:03;21.50;1.00
7248;DHT22;3665;51.034;13.642;2023-07-16T00:46:44;21.40;1.00
7248;DHT22;3665;51.034;13.642;2023-07-16T00:52:32;21.50;1.00
7248;DHT22;3665;51.034;13.642;2023-07-16T00:57:18;21.40;1.00
7248;DHT22;3665;51.034;13.642;2023-07-16T01:02:05;21.30;1.00
7248;DHT22;3665;51.034;13.642;2023-07-16T01:13:10;21.40;1.00
7248;DHT22;3665;51.034;13.642;2023-07-16T01:19:13;21.40;1.00
7248;DHT22;3665;51.034;13.642;2023-07-16T02:56:22;18.60;99.90
7248;DHT22;3665;51.034;13.642;2023-07-16T03:01:49;18.50;99.90
7248;DHT22;3665;51.034;13.642;2023-07-16T03:28:38;18.40;99.90
7248;DHT22;3665;51.034;13.642;2023-07-16T03:40:35;18.60;99.90
7248;DHT22;3665;51.034;13.642;2023-07-16T04:08:06;18.40;99.90
7248;DHT22;3665;51.034;13.642;2023-07-16T04:13:22;18.40;99.90
7248;DHT22;3665;51.034;13.642;2023-07-16T04:18:28;18.50;99.90
7248;DHT22;3665;51.034;13.642;2023-07-16T04:23:30;18.40;99.90
7248;DHT22;3665;51.034;13.642;2023-07-16T04:28:16;18.50;99.90
7248;DHT22;3665;51.034;13.642;2023-07-16T04:33:03;18.50;99.90
7248;DHT22;3665;51.034;13.642;2023-07-16T04:37:50;18.50;99.90
7248;DHT22;3665;51.034;13.642;2023-07-16T04:42:38;18.50;99.90
7248;DHT22;3665;51.034;13.642;2023-07-16T04:47:24;18.40;99.90
7248;DHT22;3665;51.034;13.642;2023-07-16T04:52:13;18.60;99.90
7248;DHT22;3665;51.034;13.642;2023-07-16T04:57:01;18.70;99.90
7248;DHT22;3665;51.034;13.642;2023-07-16T05:02:05;18.80;99.90
7248;DHT22;3665;51.034;13.642;2023-07-16T05:06:53;18.90;99.90
7248;DHT22;3665;51.034;13.642;2023-07-16T05:11:41;18.90;99.90
7248;DHT22;3665;51.034;13.642;2023-07-16T05:16:34;19.00;99.90
7248;DHT22;3665;51.034;13.642;2023-07-16T05:21:20;18.90;99.90
7248;DHT22;3665;51.034;13.642;2023-07-16T05:26:06;18.80;99.90
7248;DHT22;3665;51.034;13.642;2023-07-16T05:31:01;18.90;99.90
7248;DHT22;3665;51.034;13.642;2023-07-16T05:36:03;19.00;99.90
7248;DHT22;3665;51.034;13.642;2023-07-16T05:40:49;19.10;99.90
7248;DHT22;3665;51.034;13.642;2023-07-16T05:45:51;19.20;99.90
7248;DHT22;3665;51.034;13.642;2023-07-16T05:50:38;19.30;99.90
7248;DHT22;3665;51.034;13.642;2023-07-16T05:55:43;19.50;99.90
7248;DHT22;3665;51.034;13.642;2023-07-16T06:00:33;19.70;99.90
7248;DHT22;3665;51.034;13.642;2023-07-16T06:05:25;20.20;99.90
7248;DHT22;3665;51.034;13.642;2023-07-16T08:11:34;23.60;1.00
7248;DHT22;3665;51.034;13.642;2023-07-16T08:28:02;23.20;1.00
7248;DHT22;3665;51.034;13.642;2023-07-16T08:33:20;23.10;1.00
7248;DHT22;3665;51.034;13.642;2023-07-16T08:38:04;23.10;1.00
7248;DHT22;3665;51.034;13.642;2023-07-16T09:08:29;24.60;1.00
7248;DHT22;3665;51.034;13.642;2023-07-16T09:13:36;24.20;1.00
7248;DHT22;3665;51.034;13.642;2023-07-16T09:21:55;24.30;1.00
7248;DHT22;3665;51.034;13.642;2023-07-16T09:38:24;26.00;1.00
7248;DHT22;3665;51.034;13.642;2023-07-16T09:43:11;25.90;1.00
7248;DHT22;3665;51.034;13.642;2023-07-16T09:48:03;25.80;1.00
7248;DHT22;3665;51.034;13.642;2023-07-16T10:04:48;25.40;1.00
7248;DHT22;3665;51.034;13.642;2023-07-16T10:09:36;25.60;1.00
7248;DHT22;3665;51.034;13.642;2023-07-16T10:21:05;26.30;1.00
7248;DHT22;3665;51.034;13.642;2023-07-16T10:26:06;25.90;1.00
7248;DHT22;3665;51.034;13.642;2023-07-16T10:31:01;26.90;1.00
7248;DHT22;3665;51.034;13.642;2023-07-16T10:36:00;27.60;1.00
7248;DHT22;3665;51.034;13.642;2023-07-16T10:41:02;26.90;1.00
7248;DHT22;3665;51.034;13.642;2023-07-16T10:46:22;27.20;1.00
7248;DHT22;3665;51.034;13.642;2023-07-16T10:51:09;28.00;1.00
7248;DHT22;3665;51.034;13.642;2023-07-16T10:56:19;28.20;1.00
7248;DHT22;3665;51.034;13.642;2023-07-16T11:01:05;28.20;1.00
7248;DHT22;3665;51.034;13.642;2023-07-16T11:17:05;28.00;1.00
7248;DHT22;3665;51.034;13.642;2023-07-16T11:28:14;28.30;1.00
7248;DHT22;3665;51.034;13.642;2023-07-16T11:33:09;28.10;1.00
7248;DHT22;3665;51.034;13.642;2023-07-16T11:38:05;27.50;1.00
7248;DHT22;3665;51.034;13.642;2023-07-16T11:43:10;27.70;1.00
7248;DHT22;3665;51.034;13.642;2023-07-16T11:48:16;28.20;1.00
7248;DHT22;3665;51.034;13.642;2023-07-16T11:53:01;28.10;1.00
7248;DHT22;3665;51.034;13.642;2023-07-16T11:58:09;28.40;1.00
7248;DHT22;3665;51.034;13.642;2023-07-16T12:02:53;28.50;1.00
7248;DHT22;3665;51.034;13.642;2023-07-16T12:07:42;29.30;1.00
7248;DHT22;3665;51.034;13.642;2023-07-16T12:12:31;30.10;1.00
7248;DHT22;3665;51.034;13.642;2023-07-16T12:17:39;29.80;1.00
7248;DHT22;3665;51.034;13.642;2023-07-16T12:22:24;29.60;1.00
7248;DHT22;3665;51.034;13.642;2023-07-16T12:27:18;28.40;1.00
7248;DHT22;3665;51.034;13.642;2023-07-16T12:32:14;28.50;1.00
7248;DHT22;3665;51.034;13.642;2023-07-16T12:37:04;28.00;1.00
7248;DHT22;3665;51.034;13.642;2023-07-16T12:41:49;28.30;1.00
7248;DHT22;3665;51.034;13.642;2023-07-16T12:46:36;29.00;1.00
7248;DHT22;3665;51.034;13.642;2023-07-16T12:51:27;29.80;1.00
7248;DHT22;3665;51.034;13.642;2023-07-16T12:56:14;29.80;1.00
7248;DHT22;3665;51.034;13.642;2023-07-16T13:01:01;29.90;1.00
7248;DHT22;3665;51.034;13.642;2023-07-16T13:05:50;29.80;1.00
7248;DHT22;3665;51.034;13.642;2023-07-16T13:10:39;30.50;1.00
7248;DHT22;3665;51.034;13.642;2023-07-16T13:15:28;30.20;1.00
7248;DHT22;3665;51.034;13.642;2023-07-16T13:20:30;30.00;1.00
7248;DHT22;3665;51.034;13.642;2023-07-16T13:25:40;30.30;1.00
7248;DHT22;3665;51.034;13.642;2023-07-16T13:30:37;30.60;1.00
7248;DHT22;3665;51.034;13.642;2023-07-16T13:35:26;30.50;1.00
7248;DHT22;3665;51.034;13.642;2023-07-16T13:40:21;30.00;1.00
7248;DHT22;3665;51.034;13.642;2023-07-16T13:51:11;30.50;1.00
7248;DHT22;3665;51.034;13.642;2023-07-16T13:55:57;30.20;1.00
7248;DHT22;3665;51.034;13.642;2023-07-16T14:00:44;30.10;1.00
7248;DHT22;3665;51.034;13.642;2023-07-16T14:05:53;30.20;1.00
7248;DHT22;3665;51.034;13.642;2023-07-16T14:10:38;30.00;1.00
7248;DHT22;3665;51.034;13.642;2023-07-16T14:15:24;29.30;1.00
7248;DHT22;3665;51.034;13.642;2023-07-16T14:20:16;30.00;1.00
7248;DHT22;3665;51.034;13.642;2023-07-16T14:25:03;30.20;1.00
7248;DHT22;3665;51.034;13.642;2023-07-16T14:35:28;30.00;1.00
7248;DHT22;3665;51.034;13.642;2023-07-16T14:46:23;30.40;1.00
7248;DHT22;3665;51.034;13.642;2023-07-16T14:51:11;29.50;1.00
7248;DHT22;3665;51.034;13.642;2023-07-16T15:06:59;29.80;1.00
7248;DHT22;3665;51.034;13.642;2023-07-16T15:18:22;29.50;1.00
7248;DHT22;3665;51.034;13.642;2023-07-16T15:23:11;29.60;1.00
7248;DHT22;3665;51.034;13.642;2023-07-16T15:28:01;29.40;1.00
7248;DHT22;3665;51.034;13.642;2023-07-16T15:32:45;29.10;1.00
7248;DHT22;3665;51.034;13.642;2023-07-16T15:37:48;29.00;1.00
7248;DHT22;3665;51.034;13.642;2023-07-16T15:42:43;28.90;1.00
7248;DHT22;3665;51.034;13.642;2023-07-16T15:48:18;29.00;1.00
7248;DHT22;3665;51.034;13.642;2023-07-16T15:53:02;29.00;1.00
7248;DHT22;3665;51.034;13.642;2023-07-16T15:58:06;29.00;1.00
7248;DHT22;3665;51.034;13.642;2023-07-16T16:02:56;28.90;1.00
7248;DHT22;3665;51.034;13.642;2023-07-16T16:07:43;28.50;1.00
7248;DHT22;3665;51.034;13.642;2023-07-16T16:12:30;28.70;1.00
7248;DHT22;3665;51.034;13.642;2023-07-16T16:17:26;28.60;1.00
7248;DHT22;3665;51.034;13.642;2023-07-16T16:22:23;28.40;1.00
7248;DHT22;3665;51.034;13.642;2023-07-16T16:27:59;28.40;1.00
7248;DHT22;3665;51.034;13.642;2023-07-16T16:32:45;28.30;1.00
7248;DHT22;3665;51.034;13.642;2023-07-16T16:37:35;28.20;1.00
7248;DHT22;3665;51.034;13.642;2023-07-16T16:42:25;28.10;1.00
7248;DHT22;3665;51.034;13.642;2023-07-16T16:47:08;27.80;1.00
7248;DHT22;3665;51.034;13.642;2023-07-16T16:52:01;27.50;1.00
7248;DHT22;3665;51.034;13.642;2023-07-16T16:56:45;27.60;1.00
7248;DHT22;3665;51.034;13.642;2023-07-16T17:01:42;27.50;1.00
7248;DHT22;3665;51.034;13.642;2023-07-16T17:06:56;27.50;1.00
7248;DHT22;3665;51.034;13.642;2023-07-16T17:11:41;26.90;1.00
7248;DHT22;3665;51.034;13.642;2023-07-16T17:17:19;26.60;1.00
7248;DHT22;3665;51.034;13.642;2023-07-16T17:22:22;26.30;1.00
7248;DHT22;3665;51.034;13.642;2023-07-16T17:27:11;26.00;1.00
7248;DHT22;3665;51.034;13.642;2023-07-16T17:31:59;25.80;1.00
7248;DHT22;3665;51.034;13.642;2023-07-16T17:36:47;25.50;1.00
7248;DHT22;3665;51.034;13.642;2023-07-16T17:41:36;25.30;1.00
7248;DHT22;3665;51.034;13.642;2023-07-16T17:46:27;25.10;1.00
7248;DHT22;3665;51.034;13.642;2023-07-16T17:51:25;25.00;1.00
7248;DHT22;3665;51.034;13.642;2023-07-16T17:56:15;24.70;1.00
7248;DHT22;3665;51.034;13.642;2023-07-16T18:01:04;24.80;1.00
7248;DHT22;3665;51.034;13.642;2023-07-16T18:05:51;24.90;1.00
7248;DHT22;3665;51.034;13.642;2023-07-16T18:10:37;24.90;1.00
7248;DHT22;3665;51.034;13.642;2023-07-16T18:15:29;24.90;1.00
7248;DHT22;3665;51.034;13.642;2023-07-16T18:26:27;24.50;1.00
7248;DHT22;3665;51.034;13.642;2023-07-16T18:31:11;24.20;1.00
7248;DHT22;3665;51.034;13.642;2023-07-16T18:36:19;24.10;1.00
7248;DHT22;3665;51.034;13.642;2023-07-16T18:41:03;23.80;1.00
7248;DHT22;3665;51.034;13.642;2023-07-16T18:45:51;23.30;1.00
7248;DHT22;3665;51.034;13.642;2023-07-16T18:50:37;23.00;1.00
7248;DHT22;3665;51.034;13.642;2023-07-16T18:55:26;22.70;1.00
7248;DHT22;3665;51.034;13.642;2023-07-16T19:00:13;22.40;1.00
7248;DHT22;3665;51.034;13.642;2023-07-16T19:05:02;22.30;1.00
7248;DHT22;3665;51.034;13.642;2023-07-16T19:09:50;22.20;1.00
7248;DHT22;3665;51.034;13.642;2023-07-16T19:14:40;22.00;1.00
7248;DHT22;3665;51.034;13.642;2023-07-16T19:19:26;21.60;1.00
7248;DHT22;3665;51.034;13.642;2023-07-16T19:24:30;21.40;1.00
7248;DHT22;3665;51.034;13.642;2023-07-16T19:29:17;21.30;1.00
7248;DHT22;3665;51.034;13.642;2023-07-16T19:34:07;21.20;1.00
7248;DHT22;3665;51.034;13.642;2023-07-16T19:38:53;21.10;1.00
7248;DHT22;3665;51.034;13.642;2023-07-16T19:43:45;21.10;1.00
7248;DHT22;3665;51.034;13.642;2023-07-16T19:48:28;21.10;1.00
7248;DHT22;3665;51.034;13.642;2023-07-16T19:53:18;21.00;1.00
7248;DHT22;3665;51.034;13.642;2023-07-16T19:58:08;20.90;1.00
7248;DHT22;3665;51.034;13.642;2023-07-16T20:08:32;20.50;1.00
7248;DHT22;3665;51.034;13.642;2023-07-16T20:13:19;20.10;1.00
7248;DHT22;3665;51.034;13.642;2023-07-16T20:18:06;19.70;1.00
7248;DHT22;3665;51.034;13.642;2023-07-16T20:22:53;19.40;1.00
7248;DHT22;3665;51.034;13.642;2023-07-16T20:27:46;19.20;1.00
7248;DHT22;3665;51.034;13.642;2023-07-16T20:32:46;19.00;1.00
7248;DHT22;3665;51.034;13.642;2023-07-16T20:37:33;18.90;1.00
7248;DHT22;3665;51.034;13.642;2023-07-16T20:42:25;18.90;1.00
7248;DHT22;3665;51.034;13.642;2023-07-16T20:47:10;19.10;1.00
7248;DHT22;3665;51.034;13.642;2023-07-16T20:51:57;19.00;1.00
7248;DHT22;3665;51.034;13.642;2023-07-16T20:56:50;19.00;1.00
7248;DHT22;3665;51.034;13.642;2023-07-16T21:01:34;18.90;1.00
7248;DHT22;3665;51.034;13.642;2023-07-16T21:06:37;18.70;1.00
7248;DHT22;3665;51.034;13.642;2023-07-16T21:11:27;18.60;1.00
7248;DHT22;3665;51.034;13.642;2023-07-16T21:16:13;18.50;1.00
7248;DHT22;3665;51.034;13.642;2023-07-16T21:21:02;18.40;1.00
7248;DHT22;3665;51.034;13.642;2023-07-16T21:25:50;18.20;1.00
7248;DHT22;3665;51.034;13.642;2023-07-16T21:30:40;18.00;1.00
7248;DHT22;3665;51.034;13.642;2023-07-16T21:35:27;17.90;1.00
7248;DHT22;3665;51.034;13.642;2023-07-16T21:40:13;17.80;1.00
7248;DHT22;3665;51.034;13.642;2023-07-16T21:45:21;17.80;1.00
7248;DHT22;3665;51.034;13.642;2023-07-16T21:50:06;17.70;1.00
7248;DHT22;3665;51.034;13.642;2023-07-16T21:54:52;17.70;1.00
7248;DHT22;3665;51.034;13.642;2023-07-16T21:59:42;17.70;1.00
7248;DHT22;3665;51.034;13.642;2023-07-16T22:04:27;17.80;1.00
7248;DHT22;3665;51.034;13.642;2023-07-16T22:09:14;17.90;1.00
7248;DHT22;3665;51.034;13.642;2023-07-16T22:14:04;18.00;1.00
7248;DHT22;3665;51.034;13.642;2023-07-16T22:18:51;18.10;1.00
7248;DHT22;3665;51.034;13.642;2023-07-16T22:23:40;18.10;1.00
7248;DHT22;3665;51.034;13.642;2023-07-16T22:28:27;18.00;1.00
7248;DHT22;3665;51.034;13.642;2023-07-16T22:33:13;17.80;1.00
7248;DHT22;3665;51.034;13.642;2023-07-16T22:38:02;17.70;1.00
7248;DHT22;3665;51.034;13.642;2023-07-16T22:42:50;17.70;1.00
7248;DHT22;3665;51.034;13.642;2023-07-16T22:47:39;17.70;1.00
7248;DHT22;3665;51.034;13.642;2023-07-16T22:52:26;17.60;1.00
7248;DHT22;3665;51.034;13.642;2023-07-16T22:57:14;17.50;1.00
7248;DHT22;3665;51.034;13.642;2023-07-16T23:02:17;17.30;1.00
7248;DHT22;3665;51.034;13.642;2023-07-16T23:07:10;17.20;1.00
7248;DHT22;3665;51.034;13.642;2023-07-16T23:11:53;17.20;1.00
7248;DHT22;3665;51.034;13.642;2023-07-16T23:16:43;17.20;1.00
7248;DHT22;3665;51.034;13.642;2023-07-16T23:21:30;17.20;1.00
7248;DHT22;3665;51.034;13.642;2023-07-16T23:26:20;17.20;1.00
7248;DHT22;3665;51.034;13.642;2023-07-16T23:31:07;17.30;1.00
7248;DHT22;3665;51.034;13.642;2023-07-16T23:35:54;17.30;1.00
7248;DHT22;3665;51.034;13.642;2023-07-16T23:40:41;17.30;1.00
7248;DHT22;3665;51.034;13.642;2023-07-16T23:45:34;17.40;1.00
7248;DHT22;3665;51.034;13.642;2023-07-16T23:50:18;17.50;1.00
7248;DHT22;3665;51.034;13.642;2023-07-16T23:55:08;17.50;1.00
7248;DHT22;3665;51.034;13.642;2023-07-16T23:59:56;17.50;1.00
